createdAt,value
2018-03-06T00:00:07.281Z,979.14
2018-03-06T00:00:47.797Z,979.15
2018-03-06T00:01:28.290Z,979.1
2018-03-06T00:02:08.795Z,979.11
2018-03-06T00:02:49.307Z,979.11
2018-03-06T00:03:29.805Z,979.13
2018-03-06T00:04:10.308Z,979.14
2018-03-06T00:04:50.818Z,979.14
2018-03-06T00:05:31.340Z,979.14
2018-03-06T00:06:11.853Z,979.15
2018-03-06T00:06:52.368Z,979.15
2018-03-06T00:07:32.881Z,979.18
2018-03-06T00:08:13.399Z,979.18
2018-03-06T00:08:53.899Z,979.19
2018-03-06T00:09:34.423Z,979.16
2018-03-06T00:10:14.958Z,979.17
2018-03-06T00:10:55.475Z,979.2
2018-03-06T00:11:35.996Z,979.18
2018-03-06T00:12:16.526Z,979.21
2018-03-06T00:12:58.940Z,979.18
2018-03-06T00:13:38.471Z,979.2
2018-03-06T00:14:18.988Z,979.18
2018-03-06T00:14:59.506Z,979.21
2018-03-06T00:15:40.017Z,979.21
2018-03-06T00:16:20.528Z,979.24
2018-03-06T00:17:01.073Z,979.21
2018-03-06T00:17:41.583Z,979.29
2018-03-06T00:18:22.093Z,979.25
2018-03-06T00:19:02.609Z,979.24
2018-03-06T00:19:43.115Z,979.27
2018-03-06T00:20:23.694Z,979.25
2018-03-06T00:21:04.158Z,979.26
2018-03-06T00:21:44.690Z,979.25
2018-03-06T00:22:25.220Z,979.24
2018-03-06T00:23:05.750Z,979.28
2018-03-06T00:23:46.282Z,979.27
2018-03-06T00:24:26.805Z,979.23
2018-03-06T00:25:07.319Z,979.26
2018-03-06T00:25:47.822Z,979.23
2018-03-06T00:26:28.390Z,979.28
2018-03-06T00:27:08.853Z,979.29
2018-03-06T00:27:49.379Z,979.26
2018-03-06T00:28:29.863Z,979.26
2018-03-06T00:29:10.381Z,979.24
2018-03-06T00:29:50.884Z,979.2
2018-03-06T00:30:31.396Z,979.19
2018-03-06T00:31:11.904Z,979.21
2018-03-06T00:31:52.422Z,979.24
2018-03-06T00:32:32.943Z,979.17
2018-03-06T00:33:13.468Z,979.21
2018-03-06T00:33:54.000Z,979.21
2018-03-06T00:34:34.512Z,979.22
2018-03-06T00:35:15.030Z,979.22
2018-03-06T00:35:55.541Z,979.19
2018-03-06T00:36:36.075Z,979.18
2018-03-06T00:37:16.592Z,979.17
2018-03-06T00:37:57.157Z,979.21
2018-03-06T00:38:37.699Z,979.22
2018-03-06T00:39:18.235Z,979.22
2018-03-06T00:39:58.754Z,979.17
2018-03-06T00:40:39.263Z,979.18
2018-03-06T00:41:19.770Z,979.2
2018-03-06T00:42:00.291Z,979.16
2018-03-06T00:42:40.804Z,979.14
2018-03-06T00:43:21.324Z,979.17
2018-03-06T00:44:01.834Z,979.16
2018-03-06T00:44:42.340Z,979.15
2018-03-06T00:45:22.857Z,979.19
2018-03-06T00:46:03.367Z,979.14
2018-03-06T00:46:43.891Z,979.19
2018-03-06T00:47:24.417Z,979.14
2018-03-06T00:48:04.938Z,979.2
2018-03-06T00:48:45.449Z,979.21
2018-03-06T00:49:25.958Z,979.23
2018-03-06T00:50:06.461Z,979.2
2018-03-06T00:50:46.984Z,979.2
2018-03-06T00:51:27.514Z,979.22
2018-03-06T00:52:08.036Z,979.21
2018-03-06T00:52:48.563Z,979.22
2018-03-06T00:53:29.073Z,979.21
2018-03-06T00:54:09.590Z,979.19
2018-03-06T00:54:50.113Z,979.17
2018-03-06T00:55:30.601Z,979.13
2018-03-06T00:56:11.097Z,979.19
2018-03-06T00:56:51.602Z,979.09
2018-03-06T00:57:32.119Z,979.13
2018-03-06T00:58:12.636Z,979.15
2018-03-06T00:58:53.164Z,979.11
2018-03-06T00:59:33.672Z,979.13
2018-03-06T01:00:14.187Z,979.1
2018-03-06T01:00:54.697Z,979.02
2018-03-06T01:01:35.222Z,979.03
2018-03-06T01:02:15.742Z,979.01
2018-03-06T01:02:56.273Z,978.99
2018-03-06T01:03:36.788Z,978.97
2018-03-06T01:04:17.289Z,978.98
2018-03-06T01:04:57.827Z,978.99
2018-03-06T01:05:38.344Z,978.98
2018-03-06T01:06:18.859Z,979
2018-03-06T01:06:59.381Z,979
2018-03-06T01:07:39.906Z,978.93
2018-03-06T01:08:20.432Z,978.97
2018-03-06T01:09:00.932Z,979.01
2018-03-06T01:09:41.441Z,978.98
2018-03-06T01:10:21.964Z,978.97
2018-03-06T01:11:02.463Z,978.96
2018-03-06T01:11:42.983Z,978.96
2018-03-06T01:12:23.499Z,978.94
2018-03-06T01:13:04.010Z,978.93
2018-03-06T01:13:44.524Z,978.99
2018-03-06T01:14:25.103Z,978.96
2018-03-06T01:15:05.581Z,978.97
2018-03-06T01:15:46.086Z,979.02
2018-03-06T01:16:26.605Z,978.92
2018-03-06T01:17:07.162Z,979.01
2018-03-06T01:17:47.620Z,978.99
2018-03-06T01:18:28.138Z,979.03
2018-03-06T01:19:08.655Z,979.03
2018-03-06T01:19:49.161Z,979.01
2018-03-06T01:20:29.674Z,979
2018-03-06T01:21:10.204Z,979.02
2018-03-06T01:21:50.710Z,979.06
2018-03-06T01:22:31.234Z,979
2018-03-06T01:23:11.746Z,978.99
2018-03-06T01:23:52.260Z,978.99
2018-03-06T01:24:32.765Z,979.01
2018-03-06T01:25:13.286Z,978.98
2018-03-06T01:25:53.810Z,979
2018-03-06T01:26:34.318Z,979.02
2018-03-06T01:27:14.822Z,978.98
2018-03-06T01:27:55.330Z,978.99
2018-03-06T01:28:35.857Z,979.05
2018-03-06T01:29:16.381Z,978.99
2018-03-06T01:29:56.915Z,978.98
2018-03-06T01:30:37.449Z,979
2018-03-06T01:31:17.960Z,978.96
2018-03-06T01:31:58.480Z,978.97
2018-03-06T01:32:38.987Z,978.96
2018-03-06T01:33:19.513Z,978.95
2018-03-06T01:34:00.004Z,978.99
2018-03-06T01:34:40.518Z,978.95
2018-03-06T01:35:21.043Z,978.99
2018-03-06T01:36:01.563Z,978.98
2018-03-06T01:36:42.067Z,978.96
2018-03-06T01:37:22.593Z,978.98
2018-03-06T01:38:03.124Z,978.9
2018-03-06T01:38:43.647Z,978.91
2018-03-06T01:39:24.152Z,979
2018-03-06T01:40:04.676Z,978.96
2018-03-06T01:40:45.181Z,978.94
2018-03-06T01:41:25.695Z,978.93
2018-03-06T01:42:06.221Z,978.94
2018-03-06T01:42:46.733Z,978.91
2018-03-06T01:43:27.245Z,978.96
2018-03-06T01:44:07.765Z,978.89
2018-03-06T01:44:48.277Z,978.92
2018-03-06T01:45:28.788Z,978.87
2018-03-06T01:46:09.317Z,978.87
2018-03-06T01:46:49.833Z,978.9
2018-03-06T01:47:30.344Z,978.89
2018-03-06T01:48:10.887Z,978.86
2018-03-06T01:48:51.363Z,978.87
2018-03-06T01:49:31.892Z,978.9
2018-03-06T01:50:12.404Z,978.89
2018-03-06T01:50:52.923Z,978.87
2018-03-06T01:51:33.422Z,978.86
2018-03-06T01:52:13.928Z,978.84
2018-03-06T01:52:54.439Z,978.88
2018-03-06T01:53:34.968Z,978.81
2018-03-06T01:54:15.474Z,978.82
2018-03-06T01:54:55.997Z,978.8
2018-03-06T01:55:36.513Z,978.78
2018-03-06T01:56:17.031Z,978.77
2018-03-06T01:56:57.548Z,978.76
2018-03-06T01:57:38.060Z,978.77
2018-03-06T01:58:18.572Z,978.76
2018-03-06T01:58:59.083Z,978.71
2018-03-06T01:59:39.607Z,978.73
2018-03-06T02:00:20.115Z,978.7
2018-03-06T02:01:00.619Z,978.72
2018-03-06T02:01:41.143Z,978.72
2018-03-06T02:02:21.654Z,978.7
2018-03-06T02:03:02.175Z,978.69
2018-03-06T02:03:42.687Z,978.7
2018-03-06T02:04:23.207Z,978.74
2018-03-06T02:05:03.720Z,978.7
2018-03-06T02:05:44.226Z,978.71
2018-03-06T02:06:24.754Z,978.66
2018-03-06T02:07:05.282Z,978.74
2018-03-06T02:07:45.784Z,978.74
2018-03-06T02:08:26.307Z,978.77
2018-03-06T02:09:06.815Z,978.77
2018-03-06T02:09:47.337Z,978.67
2018-03-06T02:10:27.854Z,978.69
2018-03-06T02:11:08.368Z,978.75
2018-03-06T02:11:48.884Z,978.73
2018-03-06T02:12:29.420Z,978.73
2018-03-06T02:13:09.939Z,978.72
2018-03-06T02:13:50.452Z,978.7
2018-03-06T02:14:30.979Z,978.68
2018-03-06T02:15:11.474Z,978.73
2018-03-06T02:15:51.976Z,978.73
2018-03-06T02:16:32.497Z,978.72
2018-03-06T02:17:13.005Z,978.71
2018-03-06T02:17:53.538Z,978.67
2018-03-06T02:18:34.048Z,978.68
2018-03-06T02:19:14.556Z,978.73
2018-03-06T02:19:55.067Z,978.73
2018-03-06T02:20:35.583Z,978.73
2018-03-06T02:21:16.105Z,978.7
2018-03-06T02:21:56.616Z,978.75
2018-03-06T02:22:37.120Z,978.77
2018-03-06T02:23:17.636Z,978.7
2018-03-06T02:23:58.152Z,978.78
2018-03-06T02:24:38.658Z,978.72
2018-03-06T02:25:19.175Z,978.71
2018-03-06T02:25:59.682Z,978.7
2018-03-06T02:26:40.199Z,978.74
2018-03-06T02:27:20.719Z,978.7
2018-03-06T02:28:01.255Z,978.71
2018-03-06T02:28:41.782Z,978.69
2018-03-06T02:29:22.282Z,978.63
2018-03-06T02:30:02.806Z,978.68
2018-03-06T02:30:43.312Z,978.68
2018-03-06T02:31:23.811Z,978.65
2018-03-06T02:32:04.330Z,978.68
2018-03-06T02:32:44.852Z,978.64
2018-03-06T02:33:25.380Z,978.68
2018-03-06T02:34:05.910Z,978.66
2018-03-06T02:34:46.426Z,978.67
2018-03-06T02:35:26.942Z,978.65
2018-03-06T02:36:07.484Z,978.66
2018-03-06T02:36:47.977Z,978.62
2018-03-06T02:37:28.488Z,978.6
2018-03-06T02:38:08.990Z,978.59
2018-03-06T02:38:49.512Z,978.59
2018-03-06T02:39:30.039Z,978.56
2018-03-06T02:40:10.584Z,978.58
2018-03-06T02:40:51.091Z,978.6
2018-03-06T02:41:31.604Z,978.58
2018-03-06T02:42:12.126Z,978.59
2018-03-06T02:42:52.648Z,978.54
2018-03-06T02:43:33.172Z,978.58
2018-03-06T02:44:13.678Z,978.61
2018-03-06T02:44:54.212Z,978.62
2018-03-06T02:45:34.725Z,978.63
2018-03-06T02:46:15.240Z,978.55
2018-03-06T02:46:55.761Z,978.58
2018-03-06T02:47:36.271Z,978.58
2018-03-06T02:48:16.798Z,978.61
2018-03-06T02:48:57.303Z,978.59
2018-03-06T02:49:37.833Z,978.57
2018-03-06T02:50:18.380Z,978.6
2018-03-06T02:50:58.888Z,978.55
2018-03-06T02:51:39.413Z,978.61
2018-03-06T02:52:19.937Z,978.6
2018-03-06T02:53:00.461Z,978.56
2018-03-06T02:53:40.973Z,978.61
2018-03-06T02:54:21.614Z,978.59
2018-03-06T02:55:02.005Z,978.6
2018-03-06T02:55:42.517Z,978.64
2018-03-06T02:56:23.035Z,978.62
2018-03-06T02:57:03.553Z,978.64
2018-03-06T02:57:44.063Z,978.58
2018-03-06T02:58:24.571Z,978.63
2018-03-06T02:59:05.090Z,978.58
2018-03-06T02:59:45.603Z,978.63
2018-03-06T03:00:26.133Z,978.6
2018-03-06T03:01:06.657Z,978.63
2018-03-06T03:01:47.191Z,978.67
2018-03-06T03:02:27.696Z,978.62
2018-03-06T03:03:08.223Z,978.59
2018-03-06T03:03:48.741Z,978.6
2018-03-06T03:04:29.230Z,978.56
2018-03-06T03:05:09.742Z,978.57
2018-03-06T03:05:50.243Z,978.55
2018-03-06T03:06:30.751Z,978.6
2018-03-06T03:07:11.272Z,978.6
2018-03-06T03:07:51.773Z,978.61
2018-03-06T03:08:32.293Z,978.59
2018-03-06T03:09:12.799Z,978.58
2018-03-06T03:09:53.312Z,978.52
2018-03-06T03:10:33.820Z,978.5
2018-03-06T03:11:14.333Z,978.49
2018-03-06T03:11:54.844Z,978.55
2018-03-06T03:12:35.358Z,978.55
2018-03-06T03:13:15.873Z,978.54
2018-03-06T03:13:56.388Z,978.58
2018-03-06T03:14:36.897Z,978.5
2018-03-06T03:15:17.405Z,978.49
2018-03-06T03:15:57.921Z,978.51
2018-03-06T03:16:38.424Z,978.48
2018-03-06T03:17:18.940Z,978.51
2018-03-06T03:17:59.458Z,978.46
2018-03-06T03:18:39.968Z,978.49
2018-03-06T03:19:20.474Z,978.46
2018-03-06T03:20:01.013Z,978.46
2018-03-06T03:20:41.556Z,978.49
2018-03-06T03:21:22.077Z,978.47
2018-03-06T03:22:02.590Z,978.44
2018-03-06T03:22:43.114Z,978.43
2018-03-06T03:23:23.636Z,978.43
2018-03-06T03:24:04.151Z,978.44
2018-03-06T03:24:44.654Z,978.39
2018-03-06T03:25:25.187Z,978.44
2018-03-06T03:26:05.696Z,978.42
2018-03-06T03:26:46.204Z,978.45
2018-03-06T03:27:26.721Z,978.47
2018-03-06T03:28:07.239Z,978.45
2018-03-06T03:28:47.746Z,978.45
2018-03-06T03:29:28.274Z,978.44
2018-03-06T03:30:08.785Z,978.39
2018-03-06T03:30:49.292Z,978.41
2018-03-06T03:31:29.807Z,978.49
2018-03-06T03:32:10.323Z,978.4
2018-03-06T03:32:50.831Z,978.41
2018-03-06T03:33:31.347Z,978.42
2018-03-06T03:34:11.856Z,978.37
2018-03-06T03:34:52.357Z,978.42
2018-03-06T03:35:32.881Z,978.39
2018-03-06T03:36:13.405Z,978.39
2018-03-06T03:36:53.918Z,978.41
2018-03-06T03:37:34.433Z,978.35
2018-03-06T03:38:14.939Z,978.38
2018-03-06T03:38:55.450Z,978.37
2018-03-06T03:39:35.975Z,978.34
2018-03-06T03:40:16.500Z,978.38
2018-03-06T03:40:57.020Z,978.37
2018-03-06T03:41:37.541Z,978.41
2018-03-06T03:42:18.085Z,978.38
2018-03-06T03:42:58.582Z,978.35
2018-03-06T03:43:39.080Z,978.36
2018-03-06T03:44:19.593Z,978.37
2018-03-06T03:45:00.106Z,978.37
2018-03-06T03:45:40.613Z,978.39
2018-03-06T03:46:21.130Z,978.37
2018-03-06T03:47:01.648Z,978.38
2018-03-06T03:47:42.152Z,978.36
2018-03-06T03:48:22.654Z,978.38
2018-03-06T03:49:03.156Z,978.38
2018-03-06T03:49:43.677Z,978.4
2018-03-06T03:50:24.188Z,978.4
2018-03-06T03:51:04.692Z,978.42
2018-03-06T03:51:46.196Z,978.43
2018-03-06T03:52:26.704Z,978.44
2018-03-06T03:53:07.231Z,978.41
2018-03-06T03:53:47.741Z,978.36
2018-03-06T03:54:28.257Z,978.37
2018-03-06T03:55:08.789Z,978.37
2018-03-06T03:55:49.293Z,978.36
2018-03-06T03:56:29.787Z,978.37
2018-03-06T03:57:10.309Z,978.34
2018-03-06T03:57:50.850Z,978.4
2018-03-06T03:58:31.378Z,978.4
2018-03-06T03:59:11.887Z,978.4
2018-03-06T03:59:52.419Z,978.37
2018-03-06T04:00:32.920Z,978.39
2018-03-06T04:01:13.438Z,978.34
2018-03-06T04:01:53.946Z,978.4
2018-03-06T04:02:34.464Z,978.32
2018-03-06T04:03:15.017Z,978.36
2018-03-06T04:03:55.540Z,978.37
2018-03-06T04:04:36.058Z,978.35
2018-03-06T04:05:16.581Z,978.35
2018-03-06T04:05:57.102Z,978.34
2018-03-06T04:06:37.603Z,978.34
2018-03-06T04:07:18.121Z,978.37
2018-03-06T04:07:58.634Z,978.34
2018-03-06T04:08:39.142Z,978.4
2018-03-06T04:09:19.664Z,978.42
2018-03-06T04:10:00.155Z,978.35
2018-03-06T04:10:40.664Z,978.39
2018-03-06T04:11:21.182Z,978.37
2018-03-06T04:12:01.690Z,978.36
2018-03-06T04:12:42.200Z,978.42
2018-03-06T04:13:22.708Z,978.4
2018-03-06T04:14:03.234Z,978.38
2018-03-06T04:14:43.743Z,978.38
2018-03-06T04:15:24.262Z,978.38
2018-03-06T04:16:04.782Z,978.35
2018-03-06T04:16:45.297Z,978.41
2018-03-06T04:17:25.825Z,978.4
2018-03-06T04:18:06.344Z,978.37
2018-03-06T04:18:46.847Z,978.37
2018-03-06T04:19:27.355Z,978.4
2018-03-06T04:20:07.866Z,978.44
2018-03-06T04:20:48.443Z,978.38
2018-03-06T04:21:28.951Z,978.42
2018-03-06T04:22:09.479Z,978.39
2018-03-06T04:22:50.004Z,978.37
2018-03-06T04:23:30.532Z,978.34
2018-03-06T04:24:11.051Z,978.37
2018-03-06T04:24:51.559Z,978.38
2018-03-06T04:25:32.073Z,978.39
2018-03-06T04:26:12.596Z,978.38
2018-03-06T04:26:53.086Z,978.4
2018-03-06T04:27:33.582Z,978.38
2018-03-06T04:28:14.101Z,978.35
2018-03-06T04:28:54.612Z,978.4
2018-03-06T04:29:35.121Z,978.37
2018-03-06T04:30:15.631Z,978.4
2018-03-06T04:30:56.144Z,978.39
2018-03-06T04:31:36.658Z,978.37
2018-03-06T04:32:17.181Z,978.36
2018-03-06T04:32:57.688Z,978.37
2018-03-06T04:33:38.201Z,978.37
2018-03-06T04:34:18.715Z,978.39
2018-03-06T04:34:59.225Z,978.37
2018-03-06T04:35:39.738Z,978.38
2018-03-06T04:36:20.263Z,978.33
2018-03-06T04:37:00.768Z,978.36
2018-03-06T04:37:41.277Z,978.38
2018-03-06T04:38:21.793Z,978.37
2018-03-06T04:39:02.311Z,978.34
2018-03-06T04:39:42.814Z,978.37
2018-03-06T04:40:23.326Z,978.34
2018-03-06T04:41:03.831Z,978.35
2018-03-06T04:41:44.336Z,978.35
2018-03-06T04:42:24.837Z,978.39
2018-03-06T04:43:05.345Z,978.34
2018-03-06T04:43:45.860Z,978.31
2018-03-06T04:44:26.367Z,978.35
2018-03-06T04:45:06.883Z,978.35
2018-03-06T04:45:47.415Z,978.36
2018-03-06T04:46:28.502Z,978.35
2018-03-06T04:47:08.454Z,978.38
2018-03-06T04:47:48.962Z,978.39
2018-03-06T04:48:29.474Z,978.31
2018-03-06T04:49:10.002Z,978.41
2018-03-06T04:49:50.523Z,978.37
2018-03-06T04:50:31.030Z,978.38
2018-03-06T04:51:11.549Z,978.37
2018-03-06T04:51:52.070Z,978.43
2018-03-06T04:52:32.573Z,978.43
2018-03-06T04:53:13.083Z,978.47
2018-03-06T04:53:53.704Z,978.47
2018-03-06T04:54:34.334Z,978.46
2018-03-06T04:55:14.801Z,978.48
2018-03-06T04:55:55.296Z,978.51
2018-03-06T04:56:35.809Z,978.49
2018-03-06T04:57:16.321Z,978.51
2018-03-06T04:57:56.830Z,978.47
2018-03-06T04:58:37.342Z,978.46
2018-03-06T04:59:17.848Z,978.47
2018-03-06T04:59:58.368Z,978.49
2018-03-06T05:00:38.900Z,978.52
2018-03-06T05:01:19.412Z,978.6
2018-03-06T05:01:59.926Z,978.53
2018-03-06T05:02:40.467Z,978.53
2018-03-06T05:03:21.004Z,978.55
2018-03-06T05:04:01.526Z,978.52
2018-03-06T05:04:42.047Z,978.51
2018-03-06T05:05:22.571Z,978.58
2018-03-06T05:06:03.129Z,978.53
2018-03-06T05:06:43.647Z,978.52
2018-03-06T05:07:24.150Z,978.53
2018-03-06T05:08:04.679Z,978.52
2018-03-06T05:08:45.217Z,978.5
2018-03-06T05:09:25.773Z,978.52
2018-03-06T05:10:06.269Z,978.54
2018-03-06T05:10:46.786Z,978.6
2018-03-06T05:11:27.301Z,978.54
2018-03-06T05:12:07.804Z,978.54
2018-03-06T05:12:48.337Z,978.57
2018-03-06T05:13:28.838Z,978.57
2018-03-06T05:14:09.353Z,978.59
2018-03-06T05:14:49.868Z,978.62
2018-03-06T05:15:30.394Z,978.58
2018-03-06T05:16:10.903Z,978.61
2018-03-06T05:16:51.427Z,978.56
2018-03-06T05:17:31.947Z,978.58
2018-03-06T05:18:12.468Z,978.63
2018-03-06T05:18:53.015Z,978.62
2018-03-06T05:19:33.530Z,978.63
2018-03-06T05:20:14.052Z,978.6
2018-03-06T05:20:54.565Z,978.66
2018-03-06T05:21:35.070Z,978.68
2018-03-06T05:22:15.572Z,978.66
2018-03-06T05:22:56.090Z,978.61
2018-03-06T05:23:36.611Z,978.63
2018-03-06T05:24:17.146Z,978.64
2018-03-06T05:24:57.681Z,978.61
2018-03-06T05:25:38.220Z,978.65
2018-03-06T05:26:18.735Z,978.58
2018-03-06T05:26:59.236Z,978.59
2018-03-06T05:27:39.758Z,978.63
2018-03-06T05:28:20.260Z,978.58
2018-03-06T05:29:00.789Z,978.62
2018-03-06T05:29:41.310Z,978.64
2018-03-06T05:30:21.831Z,978.61
2018-03-06T05:31:02.348Z,978.57
2018-03-06T05:31:42.861Z,978.6
2018-03-06T05:32:23.380Z,978.58
2018-03-06T05:33:03.899Z,978.65
2018-03-06T05:33:44.426Z,978.61
2018-03-06T05:34:24.948Z,978.68
2018-03-06T05:35:05.491Z,978.64
2018-03-06T05:35:46.011Z,978.6
2018-03-06T05:36:26.531Z,978.67
2018-03-06T05:37:07.046Z,978.63
2018-03-06T05:37:47.544Z,978.59
2018-03-06T05:38:28.084Z,978.6
2018-03-06T05:39:08.599Z,978.65
2018-03-06T05:39:49.135Z,978.63
2018-03-06T05:40:29.670Z,978.63
2018-03-06T05:41:10.169Z,978.65
2018-03-06T05:41:50.695Z,978.62
2018-03-06T05:42:31.222Z,978.69
2018-03-06T05:43:11.735Z,978.65
2018-03-06T05:43:52.241Z,978.66
2018-03-06T05:44:32.755Z,978.7
2018-03-06T05:45:13.272Z,978.69
2018-03-06T05:45:53.777Z,978.66
2018-03-06T05:46:34.297Z,978.69
2018-03-06T05:47:14.844Z,978.71
2018-03-06T05:47:55.370Z,978.63
2018-03-06T05:48:35.880Z,978.7
2018-03-06T05:49:16.389Z,978.73
2018-03-06T05:49:56.888Z,978.65
2018-03-06T05:50:37.417Z,978.72
2018-03-06T05:51:17.925Z,978.75
2018-03-06T05:51:58.449Z,978.69
2018-03-06T05:52:38.961Z,978.71
2018-03-06T05:53:19.477Z,978.72
2018-03-06T05:53:59.990Z,978.73
2018-03-06T05:54:40.499Z,978.73
2018-03-06T05:55:21.027Z,978.69
2018-03-06T05:56:01.607Z,978.73
2018-03-06T05:56:42.179Z,978.68
2018-03-06T05:57:22.764Z,978.71
2018-03-06T05:58:03.275Z,978.71
2018-03-06T05:58:43.853Z,978.7
2018-03-06T05:59:24.341Z,978.73
2018-03-06T06:00:04.852Z,978.7
2018-03-06T06:00:45.340Z,978.75
2018-03-06T06:01:25.827Z,978.75
2018-03-06T06:02:06.320Z,978.72
2018-03-06T06:02:46.819Z,978.72
2018-03-06T06:03:27.287Z,978.7
2018-03-06T06:04:07.813Z,978.73
2018-03-06T06:04:48.301Z,978.73
2018-03-06T06:05:28.792Z,978.73
2018-03-06T06:06:09.308Z,978.75
2018-03-06T06:06:49.808Z,978.72
2018-03-06T06:07:30.338Z,978.75
2018-03-06T06:08:10.856Z,978.73
2018-03-06T06:08:51.361Z,978.71
2018-03-06T06:09:31.875Z,978.71
2018-03-06T06:10:12.395Z,978.66
2018-03-06T06:10:52.910Z,978.72
2018-03-06T06:11:33.427Z,978.67
2018-03-06T06:12:13.943Z,978.72
2018-03-06T06:12:54.458Z,978.69
2018-03-06T06:13:35.041Z,978.72
2018-03-06T06:14:15.565Z,978.74
2018-03-06T06:14:56.098Z,978.78
2018-03-06T06:15:36.609Z,978.75
2018-03-06T06:16:17.119Z,978.74
2018-03-06T06:16:57.658Z,978.8
2018-03-06T06:17:38.167Z,978.77
2018-03-06T06:18:18.723Z,978.8
2018-03-06T06:18:59.186Z,978.8
2018-03-06T06:19:39.700Z,978.76
2018-03-06T06:20:20.227Z,978.8
2018-03-06T06:21:00.845Z,978.84
2018-03-06T06:21:41.367Z,978.88
2018-03-06T06:22:21.891Z,978.83
2018-03-06T06:23:02.395Z,978.84
2018-03-06T06:23:42.929Z,978.83
2018-03-06T06:24:23.456Z,978.86
2018-03-06T06:25:03.960Z,978.78
2018-03-06T06:25:44.472Z,978.81
2018-03-06T06:26:25.044Z,978.83
2018-03-06T06:27:05.558Z,978.81
2018-03-06T06:27:46.068Z,978.82
2018-03-06T06:28:26.727Z,978.88
2018-03-06T06:29:07.260Z,978.9
2018-03-06T06:29:47.767Z,978.9
2018-03-06T06:30:28.279Z,978.89
2018-03-06T06:31:08.802Z,978.91
2018-03-06T06:31:49.324Z,978.91
2018-03-06T06:32:29.887Z,978.9
2018-03-06T06:33:10.420Z,978.89
2018-03-06T06:33:50.913Z,978.94
2018-03-06T06:34:31.432Z,978.94
2018-03-06T06:35:12.181Z,978.92
2018-03-06T06:35:52.701Z,978.94
2018-03-06T06:36:33.212Z,978.94
2018-03-06T06:37:13.730Z,978.92
2018-03-06T06:37:54.269Z,978.93
2018-03-06T06:38:34.744Z,978.97
2018-03-06T06:39:15.291Z,978.9
2018-03-06T06:39:55.771Z,978.93
2018-03-06T06:40:36.292Z,978.94
2018-03-06T06:41:16.807Z,978.95
2018-03-06T06:41:57.433Z,978.93
2018-03-06T06:42:37.929Z,978.98
2018-03-06T06:43:18.451Z,978.93
2018-03-06T06:43:58.976Z,978.95
2018-03-06T06:44:39.492Z,978.96
2018-03-06T06:45:20.025Z,978.99
2018-03-06T06:46:00.534Z,978.96
2018-03-06T06:46:41.093Z,978.93
2018-03-06T06:47:21.626Z,978.93
2018-03-06T06:48:02.206Z,978.94
2018-03-06T06:48:42.715Z,978.91
2018-03-06T06:49:23.797Z,978.93
2018-03-06T06:50:04.307Z,978.86
2018-03-06T06:50:44.845Z,978.87
2018-03-06T06:51:25.653Z,978.86
2018-03-06T06:52:06.156Z,978.91
2018-03-06T06:52:46.673Z,978.92
2018-03-06T06:53:27.189Z,978.92
2018-03-06T06:54:07.698Z,978.92
2018-03-06T06:54:48.260Z,978.93
2018-03-06T06:55:28.751Z,978.91
2018-03-06T06:56:09.298Z,978.94
2018-03-06T06:56:49.810Z,978.92
2018-03-06T06:57:30.374Z,978.98
2018-03-06T06:58:10.864Z,978.96
2018-03-06T06:58:51.435Z,978.98
2018-03-06T06:59:31.969Z,978.97
2018-03-06T07:00:12.485Z,978.99
2018-03-06T07:00:53.003Z,978.98
2018-03-06T07:01:33.505Z,978.97
2018-03-06T07:02:14.025Z,978.96
2018-03-06T07:02:54.540Z,978.95
2018-03-06T07:03:35.041Z,979
2018-03-06T07:04:15.564Z,978.96
2018-03-06T07:04:56.089Z,979
2018-03-06T07:05:36.607Z,978.98
2018-03-06T07:06:17.139Z,979
2018-03-06T07:06:57.665Z,978.98
2018-03-06T07:07:38.185Z,979.03
2018-03-06T07:08:18.703Z,978.96
2018-03-06T07:08:59.214Z,979.05
2018-03-06T07:09:39.741Z,979.03
2018-03-06T07:10:20.287Z,979.01
2018-03-06T07:11:00.750Z,979.07
2018-03-06T07:11:41.263Z,979.05
2018-03-06T07:12:21.955Z,979.06
2018-03-06T07:13:02.546Z,979.11
2018-03-06T07:13:43.008Z,979.05
2018-03-06T07:14:23.548Z,979.03
2018-03-06T07:15:04.071Z,979.05
2018-03-06T07:15:44.719Z,979.03
2018-03-06T07:16:25.236Z,979.06
2018-03-06T07:17:05.741Z,979.08
2018-03-06T07:17:46.361Z,979.1
2018-03-06T07:18:26.781Z,979.08
2018-03-06T07:19:07.302Z,979.08
2018-03-06T07:19:47.781Z,979.1
2018-03-06T07:20:28.319Z,979.14
2018-03-06T07:21:08.850Z,979.14
2018-03-06T07:21:49.448Z,979.11
2018-03-06T07:22:29.906Z,979.16
2018-03-06T07:23:10.434Z,979.12
2018-03-06T07:23:50.910Z,979.12
2018-03-06T07:24:31.448Z,979.11
2018-03-06T07:25:11.886Z,979.1
2018-03-06T07:25:52.435Z,979.13
2018-03-06T07:26:32.917Z,979.13
2018-03-06T07:27:13.390Z,979.11
2018-03-06T07:27:53.842Z,979.1
2018-03-06T07:28:34.314Z,979.06
2018-03-06T07:29:14.820Z,979.09
2018-03-06T07:29:55.422Z,979.08
2018-03-06T07:30:35.904Z,979.08
2018-03-06T07:31:16.415Z,979.06
2018-03-06T07:31:57.111Z,979.14
2018-03-06T07:32:37.685Z,979.14
2018-03-06T07:33:18.122Z,979.08
2018-03-06T07:33:59.421Z,979.1
2018-03-06T07:34:39.946Z,979.1
2018-03-06T07:35:20.395Z,979.08
2018-03-06T07:36:00.901Z,979.13
2018-03-06T07:37:59.062Z,979.18
2018-03-06T07:38:39.575Z,979.16
2018-03-06T07:39:20.090Z,979.19
2018-03-06T07:40:00.594Z,979.22
2018-03-06T07:40:41.117Z,979.22
2018-03-06T07:41:21.638Z,979.21
2018-03-06T07:42:02.146Z,979.27
2018-03-06T07:42:42.677Z,979.24
2018-03-06T07:43:23.361Z,979.22
2018-03-06T07:44:03.919Z,979.27
2018-03-06T07:44:44.401Z,979.29
2018-03-06T07:45:24.944Z,979.29
2018-03-06T07:46:05.531Z,979.23
2018-03-06T07:46:46.044Z,979.28
2018-03-06T07:47:26.521Z,979.31
2018-03-06T07:48:08.497Z,979.29
2018-03-06T07:48:51.792Z,979.3
2018-03-06T07:49:38.378Z,979.34
2018-03-06T07:50:25.286Z,979.28
2018-03-06T07:51:13.278Z,979.27
2018-03-06T07:52:02.315Z,979.3
2018-03-06T07:53:56.138Z,979.28
2018-03-06T07:54:36.755Z,979.27
2018-03-06T07:55:17.259Z,979.27
2018-03-06T07:55:57.762Z,979.3
2018-03-06T07:56:38.271Z,979.28
2018-03-06T07:57:18.732Z,979.27
2018-03-06T07:57:59.225Z,979.28
2018-03-06T07:58:39.682Z,979.26
2018-03-06T07:59:20.262Z,979.24
2018-03-06T08:00:00.686Z,979.28
2018-03-06T08:00:41.175Z,979.3
2018-03-06T08:01:21.680Z,979.23
2018-03-06T08:02:02.183Z,979.27
2018-03-06T08:02:42.695Z,979.31
2018-03-06T08:03:23.267Z,979.28
2018-03-06T08:04:03.703Z,979.24
2018-03-06T08:07:39.954Z,979.3
2018-03-06T08:08:20.481Z,979.3
2018-03-06T08:09:00.988Z,979.34
2018-03-06T08:09:41.492Z,979.32
2018-03-06T08:10:21.993Z,979.32
2018-03-06T08:11:02.514Z,979.33
2018-03-06T08:11:43.070Z,979.3
2018-03-06T08:12:23.514Z,979.31
2018-03-06T08:13:04.024Z,979.33
2018-03-06T08:13:44.533Z,979.32
2018-03-06T08:14:25.083Z,979.34
2018-03-06T08:15:05.582Z,979.31
2018-03-06T08:15:46.111Z,979.34
2018-03-06T08:16:26.601Z,979.31
2018-03-06T08:17:07.123Z,979.33
2018-03-06T08:17:47.634Z,979.34
2018-03-06T08:18:28.179Z,979.33
2018-03-06T08:20:50.143Z,979.32
2018-03-06T08:21:30.647Z,979.34
2018-03-06T08:22:11.147Z,979.31
2018-03-06T08:22:51.653Z,979.33
2018-03-06T08:23:32.171Z,979.31
2018-03-06T08:24:12.669Z,979.33
2018-03-06T08:24:53.216Z,979.37
2018-03-06T08:25:33.719Z,979.38
2018-03-06T08:26:14.240Z,979.34
2018-03-06T08:26:54.758Z,979.34
2018-03-06T08:27:35.255Z,979.31
2018-03-06T08:28:15.766Z,979.36
2018-03-06T08:28:56.270Z,979.33
2018-03-06T08:29:36.778Z,979.33
2018-03-06T08:30:17.335Z,979.34
2018-03-06T08:30:57.835Z,979.26
2018-03-06T08:31:38.346Z,979.28
2018-03-06T08:32:18.883Z,979.31
2018-03-06T08:32:59.428Z,979.28
2018-03-06T08:33:39.950Z,979.28
2018-03-06T08:34:20.478Z,979.28
2018-03-06T08:35:01.002Z,979.3